sensor_id;sensor_type;location;lat;lon;timestamp;P1;durP1;ratioP1;P2;durP2;ratioP2
39266;SDS011;24967;51.154;13.812;2023-04-29T00:00:42;19.80;;;15.00;;
39266;SDS011;24967;51.154;13.812;2023-04-29T00:03:09;22.25;;;15.25;;
39266;SDS011;24967;51.154;13.812;2023-04-29T00:05:35;22.02;;;16.08;;
39266;SDS011;24967;51.154;13.812;2023-04-29T00:08:01;19.92;;;15.60;;
39266;SDS011;24967;51.154;13.812;2023-04-29T00:10:28;19.00;;;14.10;;
39266;SDS011;24967;51.154;13.812;2023-04-29T00:12:55;20.67;;;15.10;;
39266;SDS011;24967;51.154;13.812;2023-04-29T00:15:22;21.90;;;16.13;;
39266;SDS011;24967;51.154;13.812;2023-04-29T00:17:50;23.38;;;15.70;;
39266;SDS011;24967;51.154;13.812;2023-04-29T00:20:16;23.83;;;16.13;;
39266;SDS011;24967;51.154;13.812;2023-04-29T00:22:42;22.42;;;16.45;;
39266;SDS011;24967;51.154;13.812;2023-04-29T00:25:09;21.92;;;15.82;;
39266;SDS011;24967;51.154;13.812;2023-04-29T00:27:35;20.33;;;15.00;;
39266;SDS011;24967;51.154;13.812;2023-04-29T00:30:03;23.45;;;16.60;;
39266;SDS011;24967;51.154;13.812;2023-04-29T00:32:31;21.63;;;16.35;;
39266;SDS011;24967;51.154;13.812;2023-04-29T00:34:59;18.98;;;14.13;;
39266;SDS011;24967;51.154;13.812;2023-04-29T00:37:25;20.00;;;14.13;;
39266;SDS011;24967;51.154;13.812;2023-04-29T00:39:52;21.23;;;16.05;;
39266;SDS011;24967;51.154;13.812;2023-04-29T00:42:19;20.52;;;15.40;;
39266;SDS011;24967;51.154;13.812;2023-04-29T00:44:45;22.30;;;16.17;;
39266;SDS011;24967;51.154;13.812;2023-04-29T00:47:12;20.45;;;14.68;;
39266;SDS011;24967;51.154;13.812;2023-04-29T00:49:38;21.70;;;15.63;;
39266;SDS011;24967;51.154;13.812;2023-04-29T00:52:06;22.98;;;15.90;;
39266;SDS011;24967;51.154;13.812;2023-04-29T00:54:33;22.50;;;15.20;;
39266;SDS011;24967;51.154;13.812;2023-04-29T00:57:00;18.52;;;14.57;;
39266;SDS011;24967;51.154;13.812;2023-04-29T00:59:28;23.95;;;16.30;;
39266;SDS011;24967;51.154;13.812;2023-04-29T01:01:56;22.15;;;16.17;;
39266;SDS011;24967;51.154;13.812;2023-04-29T01:04:24;21.85;;;15.77;;
39266;SDS011;24967;51.154;13.812;2023-04-29T01:06:53;23.65;;;16.85;;
39266;SDS011;24967;51.154;13.812;2023-04-29T01:09:35;21.98;;;15.13;;
39266;SDS011;24967;51.154;13.812;2023-04-29T01:12:14;21.45;;;15.52;;
39266;SDS011;24967;51.154;13.812;2023-04-29T01:14:47;21.80;;;15.23;;
39266;SDS011;24967;51.154;13.812;2023-04-29T01:17:20;21.65;;;15.00;;
39266;SDS011;24967;51.154;13.812;2023-04-29T01:19:51;21.00;;;15.40;;
39266;SDS011;24967;51.154;13.812;2023-04-29T01:22:21;19.38;;;14.95;;
39266;SDS011;24967;51.154;13.812;2023-04-29T01:24:49;23.50;;;15.75;;
39266;SDS011;24967;51.154;13.812;2023-04-29T01:27:28;20.23;;;15.35;;
39266;SDS011;24967;51.154;13.812;2023-04-29T01:29:59;19.55;;;15.13;;
39266;SDS011;24967;51.154;13.812;2023-04-29T01:32:33;21.58;;;15.38;;
39266;SDS011;24967;51.154;13.812;2023-04-29T01:35:10;21.30;;;15.77;;
39266;SDS011;24967;51.154;13.812;2023-04-29T01:37:46;21.08;;;14.55;;
39266;SDS011;24967;51.154;13.812;2023-04-29T01:40:21;19.90;;;14.27;;
39266;SDS011;24967;51.154;13.812;2023-04-29T01:42:54;22.05;;;15.60;;
39266;SDS011;24967;51.154;13.812;2023-04-29T01:45:25;21.80;;;15.38;;
39266;SDS011;24967;51.154;13.812;2023-04-29T01:47:53;21.38;;;14.27;;
39266;SDS011;24967;51.154;13.812;2023-04-29T01:50:21;22.88;;;15.20;;
39266;SDS011;24967;51.154;13.812;2023-04-29T01:52:47;18.83;;;14.27;;
39266;SDS011;24967;51.154;13.812;2023-04-29T01:55:14;19.48;;;14.13;;
39266;SDS011;24967;51.154;13.812;2023-04-29T01:57:41;21.85;;;14.35;;
39266;SDS011;24967;51.154;13.812;2023-04-29T02:00:09;23.00;;;15.32;;
39266;SDS011;24967;51.154;13.812;2023-04-29T02:02:36;26.90;;;16.40;;
39266;SDS011;24967;51.154;13.812;2023-04-29T02:05:03;25.05;;;17.05;;
39266;SDS011;24967;51.154;13.812;2023-04-29T02:07:29;30.33;;;17.17;;
39266;SDS011;24967;51.154;13.812;2023-04-29T02:09:56;27.40;;;16.70;;
39266;SDS011;24967;51.154;13.812;2023-04-29T02:12:22;27.17;;;18.25;;
39266;SDS011;24967;51.154;13.812;2023-04-29T02:14:52;30.38;;;17.50;;
39266;SDS011;24967;51.154;13.812;2023-04-29T02:17:18;27.30;;;17.58;;
39266;SDS011;24967;51.154;13.812;2023-04-29T02:19:45;23.98;;;17.02;;
39266;SDS011;24967;51.154;13.812;2023-04-29T02:22:11;32.00;;;18.75;;
39266;SDS011;24967;51.154;13.812;2023-04-29T02:24:39;31.25;;;19.90;;
39266;SDS011;24967;51.154;13.812;2023-04-29T02:27:05;32.35;;;20.23;;
39266;SDS011;24967;51.154;13.812;2023-04-29T02:29:32;28.70;;;19.20;;
39266;SDS011;24967;51.154;13.812;2023-04-29T02:32:00;27.38;;;17.55;;
39266;SDS011;24967;51.154;13.812;2023-04-29T02:34:26;25.60;;;17.13;;
39266;SDS011;24967;51.154;13.812;2023-04-29T02:36:53;26.50;;;16.33;;
39266;SDS011;24967;51.154;13.812;2023-04-29T02:39:19;24.65;;;16.80;;
39266;SDS011;24967;51.154;13.812;2023-04-29T02:41:46;26.30;;;15.82;;
39266;SDS011;24967;51.154;13.812;2023-04-29T02:44:12;24.02;;;17.15;;
39266;SDS011;24967;51.154;13.812;2023-04-29T02:46:39;28.42;;;18.08;;
39266;SDS011;24967;51.154;13.812;2023-04-29T02:49:10;28.70;;;18.20;;
39266;SDS011;24967;51.154;13.812;2023-04-29T02:51:37;34.88;;;18.25;;
39266;SDS011;24967;51.154;13.812;2023-04-29T02:54:04;33.40;;;19.00;;
39266;SDS011;24967;51.154;13.812;2023-04-29T02:56:30;28.90;;;18.15;;
39266;SDS011;24967;51.154;13.812;2023-04-29T02:58:56;28.80;;;17.52;;
39266;SDS011;24967;51.154;13.812;2023-04-29T03:01:23;21.13;;;15.85;;
39266;SDS011;24967;51.154;13.812;2023-04-29T03:03:50;30.25;;;17.05;;
39266;SDS011;24967;51.154;13.812;2023-04-29T03:06:18;26.20;;;15.88;;
39266;SDS011;24967;51.154;13.812;2023-04-29T03:08:44;23.95;;;14.77;;
39266;SDS011;24967;51.154;13.812;2023-04-29T03:11:10;22.33;;;15.27;;
39266;SDS011;24967;51.154;13.812;2023-04-29T03:13:37;23.75;;;14.00;;
39266;SDS011;24967;51.154;13.812;2023-04-29T03:16:04;22.30;;;14.50;;
39266;SDS011;24967;51.154;13.812;2023-04-29T03:18:31;23.23;;;14.05;;
39266;SDS011;24967;51.154;13.812;2023-04-29T03:20:57;17.35;;;13.18;;
39266;SDS011;24967;51.154;13.812;2023-04-29T03:23:25;22.27;;;15.20;;
39266;SDS011;24967;51.154;13.812;2023-04-29T03:25:52;21.73;;;15.10;;
39266;SDS011;24967;51.154;13.812;2023-04-29T03:28:19;22.75;;;15.27;;
39266;SDS011;24967;51.154;13.812;2023-04-29T03:30:46;19.80;;;13.48;;
39266;SDS011;24967;51.154;13.812;2023-04-29T03:33:12;21.73;;;14.18;;
39266;SDS011;24967;51.154;13.812;2023-04-29T03:35:39;19.13;;;13.43;;
39266;SDS011;24967;51.154;13.812;2023-04-29T03:38:05;18.70;;;12.27;;
39266;SDS011;24967;51.154;13.812;2023-04-29T03:40:33;17.90;;;12.05;;
39266;SDS011;24967;51.154;13.812;2023-04-29T03:43:00;18.33;;;11.65;;
39266;SDS011;24967;51.154;13.812;2023-04-29T03:45:26;17.90;;;12.15;;
39266;SDS011;24967;51.154;13.812;2023-04-29T03:47:53;19.13;;;12.90;;
39266;SDS011;24967;51.154;13.812;2023-04-29T03:50:19;17.98;;;12.02;;
39266;SDS011;24967;51.154;13.812;2023-04-29T03:52:45;16.65;;;11.52;;
39266;SDS011;24967;51.154;13.812;2023-04-29T03:55:12;16.05;;;12.43;;
39266;SDS011;24967;51.154;13.812;2023-04-29T03:57:40;17.58;;;11.80;;
39266;SDS011;24967;51.154;13.812;2023-04-29T04:00:07;17.70;;;11.98;;
39266;SDS011;24967;51.154;13.812;2023-04-29T04:02:34;17.98;;;12.55;;
39266;SDS011;24967;51.154;13.812;2023-04-29T04:05:00;17.50;;;12.77;;
39266;SDS011;24967;51.154;13.812;2023-04-29T04:07:27;22.25;;;12.75;;
39266;SDS011;24967;51.154;13.812;2023-04-29T04:09:53;18.95;;;11.75;;
39266;SDS011;24967;51.154;13.812;2023-04-29T04:12:19;18.50;;;12.23;;
39266;SDS011;24967;51.154;13.812;2023-04-29T04:14:47;17.30;;;12.10;;
39266;SDS011;24967;51.154;13.812;2023-04-29T04:17:14;17.13;;;11.30;;
39266;SDS011;24967;51.154;13.812;2023-04-29T04:19:40;19.92;;;12.32;;
39266;SDS011;24967;51.154;13.812;2023-04-29T04:22:06;16.30;;;10.98;;
39266;SDS011;24967;51.154;13.812;2023-04-29T04:24:33;16.38;;;11.38;;
39266;SDS011;24967;51.154;13.812;2023-04-29T04:26:59;15.55;;;11.38;;
39266;SDS011;24967;51.154;13.812;2023-04-29T04:29:26;13.35;;;10.13;;
39266;SDS011;24967;51.154;13.812;2023-04-29T04:31:54;15.90;;;10.55;;
39266;SDS011;24967;51.154;13.812;2023-04-29T04:34:20;13.60;;;9.68;;
39266;SDS011;24967;51.154;13.812;2023-04-29T04:36:47;14.38;;;9.88;;
39266;SDS011;24967;51.154;13.812;2023-04-29T04:39:13;19.40;;;10.98;;
39266;SDS011;24967;51.154;13.812;2023-04-29T04:41:39;16.35;;;11.02;;
39266;SDS011;24967;51.154;13.812;2023-04-29T04:44:06;13.18;;;9.90;;
39266;SDS011;24967;51.154;13.812;2023-04-29T04:46:32;17.42;;;10.73;;
39266;SDS011;24967;51.154;13.812;2023-04-29T04:49:00;16.00;;;11.15;;
39266;SDS011;24967;51.154;13.812;2023-04-29T04:51:27;14.23;;;11.00;;
39266;SDS011;24967;51.154;13.812;2023-04-29T04:53:53;17.65;;;11.55;;
39266;SDS011;24967;51.154;13.812;2023-04-29T04:56:20;14.60;;;11.50;;
39266;SDS011;24967;51.154;13.812;2023-04-29T04:58:47;15.07;;;12.05;;
39266;SDS011;24967;51.154;13.812;2023-04-29T05:01:13;18.90;;;12.75;;
39266;SDS011;24967;51.154;13.812;2023-04-29T05:03:39;21.02;;;14.23;;
39266;SDS011;24967;51.154;13.812;2023-04-29T05:06:07;23.55;;;15.10;;
39266;SDS011;24967;51.154;13.812;2023-04-29T05:08:34;23.00;;;15.60;;
39266;SDS011;24967;51.154;13.812;2023-04-29T05:11:00;24.75;;;16.27;;
39266;SDS011;24967;51.154;13.812;2023-04-29T05:13:27;25.30;;;16.92;;
39266;SDS011;24967;51.154;13.812;2023-04-29T05:15:53;24.38;;;15.88;;
39266;SDS011;24967;51.154;13.812;2023-04-29T05:18:20;26.25;;;17.25;;
39266;SDS011;24967;51.154;13.812;2023-04-29T05:20:46;29.70;;;17.55;;
39266;SDS011;24967;51.154;13.812;2023-04-29T05:23:14;27.80;;;17.70;;
39266;SDS011;24967;51.154;13.812;2023-04-29T05:25:40;26.33;;;17.23;;
39266;SDS011;24967;51.154;13.812;2023-04-29T05:28:07;24.05;;;17.08;;
39266;SDS011;24967;51.154;13.812;2023-04-29T05:30:34;25.63;;;17.05;;
39266;SDS011;24967;51.154;13.812;2023-04-29T05:33:01;27.10;;;18.27;;
39266;SDS011;24967;51.154;13.812;2023-04-29T05:35:28;28.70;;;18.83;;
39266;SDS011;24967;51.154;13.812;2023-04-29T05:37:55;30.35;;;19.58;;
39266;SDS011;24967;51.154;13.812;2023-04-29T05:40:22;27.40;;;19.13;;
39266;SDS011;24967;51.154;13.812;2023-04-29T05:42:49;32.67;;;21.00;;
39266;SDS011;24967;51.154;13.812;2023-04-29T05:45:16;36.97;;;20.92;;
39266;SDS011;24967;51.154;13.812;2023-04-29T05:47:42;35.58;;;21.42;;
39266;SDS011;24967;51.154;13.812;2023-04-29T05:50:09;34.35;;;20.95;;
39266;SDS011;24967;51.154;13.812;2023-04-29T05:52:36;37.50;;;20.92;;
39266;SDS011;24967;51.154;13.812;2023-04-29T05:55:03;41.00;;;22.67;;
39266;SDS011;24967;51.154;13.812;2023-04-29T05:57:31;34.10;;;20.83;;
39266;SDS011;24967;51.154;13.812;2023-04-29T05:59:57;35.55;;;22.70;;
39266;SDS011;24967;51.154;13.812;2023-04-29T06:02:24;33.75;;;21.75;;
39266;SDS011;24967;51.154;13.812;2023-04-29T06:04:51;32.88;;;21.40;;
39266;SDS011;24967;51.154;13.812;2023-04-29T06:07:17;36.45;;;22.33;;
39266;SDS011;24967;51.154;13.812;2023-04-29T06:09:44;34.65;;;22.40;;
39266;SDS011;24967;51.154;13.812;2023-04-29T06:12:10;31.65;;;20.95;;
39266;SDS011;24967;51.154;13.812;2023-04-29T06:14:38;30.92;;;20.63;;
39266;SDS011;24967;51.154;13.812;2023-04-29T06:17:05;30.67;;;20.38;;
39266;SDS011;24967;51.154;13.812;2023-04-29T06:19:31;27.25;;;19.05;;
39266;SDS011;24967;51.154;13.812;2023-04-29T06:21:58;28.40;;;19.23;;
39266;SDS011;24967;51.154;13.812;2023-04-29T06:24:24;27.60;;;18.73;;
39266;SDS011;24967;51.154;13.812;2023-04-29T06:26:51;27.83;;;18.90;;
39266;SDS011;24967;51.154;13.812;2023-04-29T06:29:17;26.55;;;18.73;;
39266;SDS011;24967;51.154;13.812;2023-04-29T06:31:45;26.27;;;17.40;;
39266;SDS011;24967;51.154;13.812;2023-04-29T06:34:11;25.67;;;16.85;;
39266;SDS011;24967;51.154;13.812;2023-04-29T06:36:38;26.02;;;17.95;;
39266;SDS011;24967;51.154;13.812;2023-04-29T06:39:05;24.98;;;17.17;;
39266;SDS011;24967;51.154;13.812;2023-04-29T06:41:31;24.33;;;17.00;;
39266;SDS011;24967;51.154;13.812;2023-04-29T06:43:58;25.98;;;17.63;;
39266;SDS011;24967;51.154;13.812;2023-04-29T06:46:25;23.80;;;16.60;;
39266;SDS011;24967;51.154;13.812;2023-04-29T06:48:53;25.58;;;18.02;;
39266;SDS011;24967;51.154;13.812;2023-04-29T06:51:19;21.58;;;15.38;;
39266;SDS011;24967;51.154;13.812;2023-04-29T06:53:46;20.58;;;15.13;;
39266;SDS011;24967;51.154;13.812;2023-04-29T06:56:12;20.27;;;15.10;;
39266;SDS011;24967;51.154;13.812;2023-04-29T06:58:38;22.08;;;14.88;;
39266;SDS011;24967;51.154;13.812;2023-04-29T07:01:05;22.58;;;15.05;;
39266;SDS011;24967;51.154;13.812;2023-04-29T07:03:32;20.25;;;14.38;;
39266;SDS011;24967;51.154;13.812;2023-04-29T07:06:00;22.13;;;15.75;;
39266;SDS011;24967;51.154;13.812;2023-04-29T07:08:26;22.35;;;16.08;;
39266;SDS011;24967;51.154;13.812;2023-04-29T07:10:53;21.25;;;14.88;;
39266;SDS011;24967;51.154;13.812;2023-04-29T07:13:20;21.77;;;15.05;;
39266;SDS011;24967;51.154;13.812;2023-04-29T07:15:47;21.80;;;14.75;;
39266;SDS011;24967;51.154;13.812;2023-04-29T07:18:13;19.75;;;14.75;;
39266;SDS011;24967;51.154;13.812;2023-04-29T07:20:39;21.35;;;14.95;;
39266;SDS011;24967;51.154;13.812;2023-04-29T07:23:07;22.33;;;15.50;;
39266;SDS011;24967;51.154;13.812;2023-04-29T07:25:34;23.52;;;15.75;;
39266;SDS011;24967;51.154;13.812;2023-04-29T07:28:00;21.88;;;15.65;;
39266;SDS011;24967;51.154;13.812;2023-04-29T07:33:38;24.08;;;15.52;;
39266;SDS011;24967;51.154;13.812;2023-04-29T07:36:04;23.55;;;15.52;;
39266;SDS011;24967;51.154;13.812;2023-04-29T07:38:33;22.67;;;15.15;;
39266;SDS011;24967;51.154;13.812;2023-04-29T07:41:00;22.55;;;15.90;;
39266;SDS011;24967;51.154;13.812;2023-04-29T07:43:28;22.52;;;16.65;;
39266;SDS011;24967;51.154;13.812;2023-04-29T07:45:55;27.25;;;17.77;;
39266;SDS011;24967;51.154;13.812;2023-04-29T07:48:21;29.77;;;18.42;;
39266;SDS011;24967;51.154;13.812;2023-04-29T07:50:48;29.85;;;19.23;;
39266;SDS011;24967;51.154;13.812;2023-04-29T07:53:14;30.23;;;19.13;;
39266;SDS011;24967;51.154;13.812;2023-04-29T07:55:43;28.08;;;18.20;;
39266;SDS011;24967;51.154;13.812;2023-04-29T07:58:09;24.02;;;16.63;;
39266;SDS011;24967;51.154;13.812;2023-04-29T08:00:36;26.15;;;17.50;;
39266;SDS011;24967;51.154;13.812;2023-04-29T08:03:02;23.30;;;17.02;;
39266;SDS011;24967;51.154;13.812;2023-04-29T08:05:29;24.35;;;15.95;;
39266;SDS011;24967;51.154;13.812;2023-04-29T08:07:55;18.42;;;13.05;;
39266;SDS011;24967;51.154;13.812;2023-04-29T08:10:22;19.35;;;13.10;;
39266;SDS011;24967;51.154;13.812;2023-04-29T08:12:50;20.65;;;13.80;;
39266;SDS011;24967;51.154;13.812;2023-04-29T08:15:16;18.00;;;13.05;;
39266;SDS011;24967;51.154;13.812;2023-04-29T08:17:44;17.73;;;13.20;;
39266;SDS011;24967;51.154;13.812;2023-04-29T08:20:11;20.75;;;14.07;;
39266;SDS011;24967;51.154;13.812;2023-04-29T08:22:39;19.17;;;13.52;;
39266;SDS011;24967;51.154;13.812;2023-04-29T08:25:06;16.98;;;12.07;;
39266;SDS011;24967;51.154;13.812;2023-04-29T08:27:33;17.17;;;13.18;;
39266;SDS011;24967;51.154;13.812;2023-04-29T08:30:01;18.35;;;13.40;;
39266;SDS011;24967;51.154;13.812;2023-04-29T08:32:27;16.30;;;13.32;;
39266;SDS011;24967;51.154;13.812;2023-04-29T08:34:54;16.73;;;13.45;;
39266;SDS011;24967;51.154;13.812;2023-04-29T08:37:20;14.82;;;11.60;;
39266;SDS011;24967;51.154;13.812;2023-04-29T08:39:47;14.70;;;11.13;;
39266;SDS011;24967;51.154;13.812;2023-04-29T08:42:13;12.82;;;11.10;;
39266;SDS011;24967;51.154;13.812;2023-04-29T08:44:40;12.00;;;10.70;;
39266;SDS011;24967;51.154;13.812;2023-04-29T08:47:08;12.82;;;10.57;;
39266;SDS011;24967;51.154;13.812;2023-04-29T08:49:35;13.65;;;10.05;;
39266;SDS011;24967;51.154;13.812;2023-04-29T08:52:02;11.40;;;8.98;;
39266;SDS011;24967;51.154;13.812;2023-04-29T08:54:30;13.13;;;9.93;;
39266;SDS011;24967;51.154;13.812;2023-04-29T08:56:56;9.63;;;8.57;;
39266;SDS011;24967;51.154;13.812;2023-04-29T08:59:26;10.70;;;9.35;;
39266;SDS011;24967;51.154;13.812;2023-04-29T09:01:54;11.73;;;8.40;;
39266;SDS011;24967;51.154;13.812;2023-04-29T09:04:27;9.80;;;8.80;;
39266;SDS011;24967;51.154;13.812;2023-04-29T09:07:01;11.27;;;8.70;;
39266;SDS011;24967;51.154;13.812;2023-04-29T09:09:30;9.13;;;8.23;;
39266;SDS011;24967;51.154;13.812;2023-04-29T09:11:57;10.85;;;8.52;;
39266;SDS011;24967;51.154;13.812;2023-04-29T09:14:24;13.25;;;8.50;;
39266;SDS011;24967;51.154;13.812;2023-04-29T09:16:51;9.32;;;8.40;;
39266;SDS011;24967;51.154;13.812;2023-04-29T09:19:31;12.32;;;9.93;;
39266;SDS011;24967;51.154;13.812;2023-04-29T09:21:59;11.55;;;9.65;;
39266;SDS011;24967;51.154;13.812;2023-04-29T09:24:26;11.27;;;9.52;;
39266;SDS011;24967;51.154;13.812;2023-04-29T09:26:54;11.43;;;9.80;;
39266;SDS011;24967;51.154;13.812;2023-04-29T09:29:20;13.50;;;11.05;;
39266;SDS011;24967;51.154;13.812;2023-04-29T09:31:48;12.43;;;9.90;;
39266;SDS011;24967;51.154;13.812;2023-04-29T09:34:14;11.95;;;9.45;;
39266;SDS011;24967;51.154;13.812;2023-04-29T09:36:43;11.60;;;9.70;;
39266;SDS011;24967;51.154;13.812;2023-04-29T09:39:11;11.90;;;9.80;;
39266;SDS011;24967;51.154;13.812;2023-04-29T09:41:39;9.82;;;8.38;;
39266;SDS011;24967;51.154;13.812;2023-04-29T09:44:07;9.90;;;8.35;;
39266;SDS011;24967;51.154;13.812;2023-04-29T09:46:35;10.90;;;8.25;;
39266;SDS011;24967;51.154;13.812;2023-04-29T09:49:02;12.30;;;8.85;;
39266;SDS011;24967;51.154;13.812;2023-04-29T09:51:30;11.10;;;8.82;;
39266;SDS011;24967;51.154;13.812;2023-04-29T09:53:59;12.70;;;8.70;;
39266;SDS011;24967;51.154;13.812;2023-04-29T09:56:27;12.85;;;9.73;;
39266;SDS011;24967;51.154;13.812;2023-04-29T09:58:54;10.98;;;9.07;;
39266;SDS011;24967;51.154;13.812;2023-04-29T10:01:21;12.23;;;9.18;;
39266;SDS011;24967;51.154;13.812;2023-04-29T10:03:49;12.93;;;9.40;;
39266;SDS011;24967;51.154;13.812;2023-04-29T10:06:20;15.18;;;11.40;;
39266;SDS011;24967;51.154;13.812;2023-04-29T10:08:47;14.77;;;10.55;;
39266;SDS011;24967;51.154;13.812;2023-04-29T10:11:15;13.20;;;10.40;;
39266;SDS011;24967;51.154;13.812;2023-04-29T10:13:43;16.08;;;10.93;;
39266;SDS011;24967;51.154;13.812;2023-04-29T10:16:13;15.43;;;11.25;;
39266;SDS011;24967;51.154;13.812;2023-04-29T10:18:47;15.88;;;11.18;;
39266;SDS011;24967;51.154;13.812;2023-04-29T10:21:17;17.48;;;11.60;;
39266;SDS011;24967;51.154;13.812;2023-04-29T10:23:45;16.15;;;11.68;;
39266;SDS011;24967;51.154;13.812;2023-04-29T10:26:13;19.73;;;12.40;;
39266;SDS011;24967;51.154;13.812;2023-04-29T10:28:43;17.45;;;12.65;;
39266;SDS011;24967;51.154;13.812;2023-04-29T10:31:13;16.98;;;12.43;;
39266;SDS011;24967;51.154;13.812;2023-04-29T10:33:42;19.08;;;13.55;;
39266;SDS011;24967;51.154;13.812;2023-04-29T10:36:12;17.40;;;12.45;;
39266;SDS011;24967;51.154;13.812;2023-04-29T10:38:41;18.52;;;13.10;;
39266;SDS011;24967;51.154;13.812;2023-04-29T10:41:13;17.88;;;13.32;;
39266;SDS011;24967;51.154;13.812;2023-04-29T10:43:48;15.07;;;12.13;;
39266;SDS011;24967;51.154;13.812;2023-04-29T10:46:16;15.80;;;11.93;;
39266;SDS011;24967;51.154;13.812;2023-04-29T10:48:43;16.40;;;12.68;;
39266;SDS011;24967;51.154;13.812;2023-04-29T10:51:09;17.65;;;12.70;;
39266;SDS011;24967;51.154;13.812;2023-04-29T10:53:49;16.60;;;12.07;;
39266;SDS011;24967;51.154;13.812;2023-04-29T10:56:46;16.90;;;13.03;;
39266;SDS011;24967;51.154;13.812;2023-04-29T10:59:14;17.77;;;12.80;;
39266;SDS011;24967;51.154;13.812;2023-04-29T11:01:42;18.70;;;13.32;;
39266;SDS011;24967;51.154;13.812;2023-04-29T11:04:12;19.85;;;13.38;;
39266;SDS011;24967;51.154;13.812;2023-04-29T11:06:41;17.02;;;12.82;;
39266;SDS011;24967;51.154;13.812;2023-04-29T11:09:11;17.52;;;13.55;;
39266;SDS011;24967;51.154;13.812;2023-04-29T11:11:46;14.88;;;12.45;;
39266;SDS011;24967;51.154;13.812;2023-04-29T11:14:14;14.50;;;11.85;;
39266;SDS011;24967;51.154;13.812;2023-04-29T11:16:46;12.82;;;10.25;;
39266;SDS011;24967;51.154;13.812;2023-04-29T11:19:14;10.82;;;9.73;;
39266;SDS011;24967;51.154;13.812;2023-04-29T11:21:42;10.68;;;9.57;;
39266;SDS011;24967;51.154;13.812;2023-04-29T11:24:10;11.43;;;9.88;;
39266;SDS011;24967;51.154;13.812;2023-04-29T11:26:39;12.07;;;9.40;;
39266;SDS011;24967;51.154;13.812;2023-04-29T11:29:08;11.10;;;9.25;;
39266;SDS011;24967;51.154;13.812;2023-04-29T11:31:35;11.70;;;9.63;;
39266;SDS011;24967;51.154;13.812;2023-04-29T11:34:03;10.63;;;9.25;;
39266;SDS011;24967;51.154;13.812;2023-04-29T11:36:30;10.80;;;9.13;;
39266;SDS011;24967;51.154;13.812;2023-04-29T11:38:58;12.00;;;9.57;;
39266;SDS011;24967;51.154;13.812;2023-04-29T11:41:25;12.18;;;9.57;;
39266;SDS011;24967;51.154;13.812;2023-04-29T11:43:55;10.35;;;9.25;;
39266;SDS011;24967;51.154;13.812;2023-04-29T11:46:24;9.70;;;8.70;;
39266;SDS011;24967;51.154;13.812;2023-04-29T11:48:52;8.57;;;7.65;;
39266;SDS011;24967;51.154;13.812;2023-04-29T11:51:19;10.43;;;9.18;;
39266;SDS011;24967;51.154;13.812;2023-04-29T11:53:46;8.35;;;7.45;;
39266;SDS011;24967;51.154;13.812;2023-04-29T11:56:13;9.70;;;8.23;;
39266;SDS011;24967;51.154;13.812;2023-04-29T11:58:40;10.32;;;7.88;;
39266;SDS011;24967;51.154;13.812;2023-04-29T12:01:38;7.93;;;7.13;;
39266;SDS011;24967;51.154;13.812;2023-04-29T12:04:03;8.07;;;7.15;;
39266;SDS011;24967;51.154;13.812;2023-04-29T12:06:31;8.73;;;7.22;;
39266;SDS011;24967;51.154;13.812;2023-04-29T12:08:58;10.85;;;7.65;;
39266;SDS011;24967;51.154;13.812;2023-04-29T12:11:25;7.80;;;7.00;;
39266;SDS011;24967;51.154;13.812;2023-04-29T12:13:52;11.25;;;6.80;;
39266;SDS011;24967;51.154;13.812;2023-04-29T12:16:19;7.03;;;6.32;;
39266;SDS011;24967;51.154;13.812;2023-04-29T12:18:47;7.75;;;6.60;;
39266;SDS011;24967;51.154;13.812;2023-04-29T12:21:13;6.90;;;6.28;;
39266;SDS011;24967;51.154;13.812;2023-04-29T12:23:40;7.57;;;6.45;;
39266;SDS011;24967;51.154;13.812;2023-04-29T12:26:06;9.32;;;6.75;;
39266;SDS011;24967;51.154;13.812;2023-04-29T12:28:37;8.10;;;7.30;;
39266;SDS011;24967;51.154;13.812;2023-04-29T12:31:35;7.95;;;7.22;;
39266;SDS011;24967;51.154;13.812;2023-04-29T12:34:28;8.75;;;7.85;;
39266;SDS011;24967;51.154;13.812;2023-04-29T12:36:57;8.63;;;7.32;;
39266;SDS011;24967;51.154;13.812;2023-04-29T12:39:24;8.98;;;8.07;;
39266;SDS011;24967;51.154;13.812;2023-04-29T12:41:53;8.05;;;7.35;;
39266;SDS011;24967;51.154;13.812;2023-04-29T12:44:21;11.77;;;8.48;;
39266;SDS011;24967;51.154;13.812;2023-04-29T12:46:48;10.25;;;9.20;;
39266;SDS011;24967;51.154;13.812;2023-04-29T12:49:17;10.48;;;9.48;;
39266;SDS011;24967;51.154;13.812;2023-04-29T12:51:45;11.40;;;10.30;;
39266;SDS011;24967;51.154;13.812;2023-04-29T12:54:12;12.57;;;10.77;;
39266;SDS011;24967;51.154;13.812;2023-04-29T12:56:38;11.30;;;10.20;;
39266;SDS011;24967;51.154;13.812;2023-04-29T12:59:16;11.52;;;10.32;;
39266;SDS011;24967;51.154;13.812;2023-04-29T13:02:24;9.93;;;8.93;;
39266;SDS011;24967;51.154;13.812;2023-04-29T13:05:03;13.40;;;11.63;;
39266;SDS011;24967;51.154;13.812;2023-04-29T13:07:31;16.55;;;13.27;;
39266;SDS011;24967;51.154;13.812;2023-04-29T13:09:58;18.13;;;14.32;;
39266;SDS011;24967;51.154;13.812;2023-04-29T13:12:24;17.77;;;13.80;;
39266;SDS011;24967;51.154;13.812;2023-04-29T13:14:51;20.08;;;14.52;;
39266;SDS011;24967;51.154;13.812;2023-04-29T13:17:19;18.50;;;15.02;;
39266;SDS011;24967;51.154;13.812;2023-04-29T13:19:45;22.38;;;15.93;;
39266;SDS011;24967;51.154;13.812;2023-04-29T13:22:12;21.80;;;15.50;;
39266;SDS011;24967;51.154;13.812;2023-04-29T13:24:40;28.45;;;17.83;;
39266;SDS011;24967;51.154;13.812;2023-04-29T13:27:06;26.85;;;17.58;;
39266;SDS011;24967;51.154;13.812;2023-04-29T13:29:32;28.38;;;18.88;;
39266;SDS011;24967;51.154;13.812;2023-04-29T13:31:59;27.65;;;15.98;;
39266;SDS011;24967;51.154;13.812;2023-04-29T13:34:25;31.95;;;18.27;;
39266;SDS011;24967;51.154;13.812;2023-04-29T13:36:52;31.33;;;18.50;;
39266;SDS011;24967;51.154;13.812;2023-04-29T13:39:18;29.92;;;17.67;;
39266;SDS011;24967;51.154;13.812;2023-04-29T13:41:48;34.55;;;17.77;;
39266;SDS011;24967;51.154;13.812;2023-04-29T13:44:15;32.35;;;17.88;;
39266;SDS011;24967;51.154;13.812;2023-04-29T13:46:42;34.35;;;19.38;;
39266;SDS011;24967;51.154;13.812;2023-04-29T13:49:10;36.08;;;19.00;;
39266;SDS011;24967;51.154;13.812;2023-04-29T13:51:36;40.00;;;20.58;;
39266;SDS011;24967;51.154;13.812;2023-04-29T13:54:03;41.55;;;21.17;;
39266;SDS011;24967;51.154;13.812;2023-04-29T13:56:30;36.33;;;18.95;;
39266;SDS011;24967;51.154;13.812;2023-04-29T13:58:57;37.83;;;20.15;;
39266;SDS011;24967;51.154;13.812;2023-04-29T14:01:24;36.85;;;20.67;;
39266;SDS011;24967;51.154;13.812;2023-04-29T14:03:51;36.33;;;20.25;;
39266;SDS011;24967;51.154;13.812;2023-04-29T14:06:18;37.33;;;20.05;;
39266;SDS011;24967;51.154;13.812;2023-04-29T14:08:44;32.40;;;20.00;;
39266;SDS011;24967;51.154;13.812;2023-04-29T14:11:11;37.58;;;19.90;;
39266;SDS011;24967;51.154;13.812;2023-04-29T14:13:38;34.17;;;19.67;;
39266;SDS011;24967;51.154;13.812;2023-04-29T14:16:06;35.30;;;20.58;;
39266;SDS011;24967;51.154;13.812;2023-04-29T14:18:33;33.88;;;19.85;;
39266;SDS011;24967;51.154;13.812;2023-04-29T14:21:00;33.85;;;22.70;;